sensor_id;sensor_type;location;lat;lon;timestamp;pressure;altitude;pressure_sealevel;temperature;humidity
12793;BME280;6460;42.684;23.260;2022-07-10T00:01:32;94502.38;;;15.95;100.00
12793;BME280;6460;42.684;23.260;2022-07-10T00:04:00;94501.53;;;16.08;100.00
12793;BME280;6460;42.684;23.260;2022-07-10T00:06:27;94500.81;;;16.08;100.00
12793;BME280;6460;42.684;23.260;2022-07-10T00:08:55;94494.53;;;16.25;100.00
12793;BME280;6460;42.684;23.260;2022-07-10T00:11:22;94488.38;;;16.21;100.00
12793;BME280;6460;42.684;23.260;2022-07-10T00:13:49;94489.09;;;16.25;100.00
12793;BME280;6460;42.684;23.260;2022-07-10T00:16:16;94499.16;;;16.28;100.00
12793;BME280;6460;42.684;23.260;2022-07-10T00:18:43;94478.72;;;15.99;100.00
12793;BME280;6460;42.684;23.260;2022-07-10T00:21:12;94496.19;;;15.87;100.00
12793;BME280;6460;42.684;23.260;2022-07-10T00:23:39;94489.25;;;15.82;100.00
12793;BME280;6460;42.684;23.260;2022-07-10T00:26:06;94486.91;;;15.92;100.00
12793;BME280;6460;42.684;23.260;2022-07-10T00:28:33;94486.03;;;16.16;100.00
12793;BME280;6460;42.684;23.260;2022-07-10T00:31:00;94488.84;;;15.77;100.00
12793;BME280;6460;42.684;23.260;2022-07-10T00:33:27;94482.97;;;16.10;100.00
12793;BME280;6460;42.684;23.260;2022-07-10T00:35:56;94482.22;;;16.03;100.00
12793;BME280;6460;42.684;23.260;2022-07-10T00:38:25;94475.63;;;16.07;100.00
12793;BME280;6460;42.684;23.260;2022-07-10T00:40:52;94472.22;;;15.75;100.00
12793;BME280;6460;42.684;23.260;2022-07-10T00:43:19;94475.28;;;15.87;100.00
12793;BME280;6460;42.684;23.260;2022-07-10T00:45:48;94477.53;;;16.10;100.00
12793;BME280;6460;42.684;23.260;2022-07-10T00:48:15;94482.63;;;15.91;100.00
12793;BME280;6460;42.684;23.260;2022-07-10T00:50:43;94467.03;;;16.23;100.00
12793;BME280;6460;42.684;23.260;2022-07-10T00:53:12;94469.00;;;16.15;100.00
12793;BME280;6460;42.684;23.260;2022-07-10T00:55:41;94470.19;;;16.11;100.00
12793;BME280;6460;42.684;23.260;2022-07-10T00:58:10;94466.69;;;16.10;100.00
12793;BME280;6460;42.684;23.260;2022-07-10T01:00:38;94470.56;;;16.13;100.00
12793;BME280;6460;42.684;23.260;2022-07-10T01:03:06;94473.31;;;15.99;100.00
12793;BME280;6460;42.684;23.260;2022-07-10T01:05:33;94474.09;;;15.96;100.00
12793;BME280;6460;42.684;23.260;2022-07-10T01:08:00;94477.56;;;16.00;100.00
12793;BME280;6460;42.684;23.260;2022-07-10T01:10:28;94468.34;;;15.72;100.00
12793;BME280;6460;42.684;23.260;2022-07-10T01:12:56;94470.63;;;15.92;100.00
12793;BME280;6460;42.684;23.260;2022-07-10T01:15:23;94466.78;;;15.71;100.00
12793;BME280;6460;42.684;23.260;2022-07-10T01:17:50;94468.31;;;15.79;100.00
12793;BME280;6460;42.684;23.260;2022-07-10T01:20:18;94466.44;;;15.59;100.00
12793;BME280;6460;42.684;23.260;2022-07-10T01:22:47;94461.75;;;15.70;100.00
12793;BME280;6460;42.684;23.260;2022-07-10T01:25:14;94456.72;;;15.82;100.00
12793;BME280;6460;42.684;23.260;2022-07-10T01:27:41;94453.59;;;15.91;100.00
12793;BME280;6460;42.684;23.260;2022-07-10T01:30:09;94462.91;;;15.79;100.00
12793;BME280;6460;42.684;23.260;2022-07-10T01:32:38;94454.75;;;15.94;100.00
12793;BME280;6460;42.684;23.260;2022-07-10T01:35:06;94452.84;;;15.76;100.00
12793;BME280;6460;42.684;23.260;2022-07-10T01:37:34;94443.56;;;15.77;100.00
12793;BME280;6460;42.684;23.260;2022-07-10T01:40:06;94442.84;;;15.59;100.00
12793;BME280;6460;42.684;23.260;2022-07-10T01:42:34;94443.19;;;15.75;100.00
12793;BME280;6460;42.684;23.260;2022-07-10T01:45:03;94437.34;;;15.84;100.00
12793;BME280;6460;42.684;23.260;2022-07-10T01:47:30;94443.56;;;15.67;100.00
12793;BME280;6460;42.684;23.260;2022-07-10T01:49:57;94437.00;;;15.71;100.00
12793;BME280;6460;42.684;23.260;2022-07-10T01:52:24;94445.16;;;15.54;100.00
12793;BME280;6460;42.684;23.260;2022-07-10T01:54:52;94443.97;;;15.72;100.00
12793;BME280;6460;42.684;23.260;2022-07-10T01:57:20;94447.84;;;15.61;100.00
12793;BME280;6460;42.684;23.260;2022-07-10T01:59:47;94450.19;;;15.62;100.00
12793;BME280;6460;42.684;23.260;2022-07-10T02:02:14;94441.22;;;15.79;100.00
12793;BME280;6460;42.684;23.260;2022-07-10T02:04:42;94438.19;;;15.63;100.00
12793;BME280;6460;42.684;23.260;2022-07-10T02:07:08;94443.59;;;15.56;100.00
12793;BME280;6460;42.684;23.260;2022-07-10T02:09:35;94437.41;;;15.56;100.00
12793;BME280;6460;42.684;23.260;2022-07-10T02:12:02;94435.09;;;15.44;100.00
12793;BME280;6460;42.684;23.260;2022-07-10T02:14:31;94435.09;;;15.47;100.00
12793;BME280;6460;42.684;23.260;2022-07-10T02:16:58;94430.47;;;15.33;100.00
12793;BME280;6460;42.684;23.260;2022-07-10T02:19:25;94434.69;;;15.38;100.00
12793;BME280;6460;42.684;23.260;2022-07-10T02:21:53;94435.09;;;15.54;100.00
12793;BME280;6460;42.684;23.260;2022-07-10T02:24:20;94428.13;;;15.35;100.00
12793;BME280;6460;42.684;23.260;2022-07-10T02:26:47;94432.78;;;15.49;100.00
12793;BME280;6460;42.684;23.260;2022-07-10T02:29:14;94436.66;;;15.38;100.00
12793;BME280;6460;42.684;23.260;2022-07-10T02:31:43;94430.44;;;15.65;100.00
12793;BME280;6460;42.684;23.260;2022-07-10T02:34:11;94432.75;;;15.42;100.00
12793;BME280;6460;42.684;23.260;2022-07-10T02:36:39;94427.31;;;15.70;100.00
12793;BME280;6460;42.684;23.260;2022-07-10T02:39:07;94419.63;;;15.48;100.00
12793;BME280;6460;42.684;23.260;2022-07-10T02:41:34;94430.03;;;15.42;100.00
12793;BME280;6460;42.684;23.260;2022-07-10T02:44:02;94426.56;;;15.38;100.00
12793;BME280;6460;42.684;23.260;2022-07-10T02:46:29;94435.09;;;15.47;100.00
12793;BME280;6460;42.684;23.260;2022-07-10T02:48:58;94429.66;;;15.68;100.00
12793;BME280;6460;42.684;23.260;2022-07-10T02:51:25;94436.66;;;15.48;100.00
12793;BME280;6460;42.684;23.260;2022-07-10T02:53:52;94433.16;;;15.51;100.00
12793;BME280;6460;42.684;23.260;2022-07-10T02:56:19;94444.78;;;15.41;100.00
12793;BME280;6460;42.684;23.260;2022-07-10T02:58:46;94447.47;;;15.55;100.00
12793;BME280;6460;42.684;23.260;2022-07-10T03:01:14;94448.63;;;15.47;100.00
12793;BME280;6460;42.684;23.260;2022-07-10T03:03:41;94447.44;;;15.45;100.00
12793;BME280;6460;42.684;23.260;2022-07-10T03:06:09;94443.59;;;15.42;100.00
12793;BME280;6460;42.684;23.260;2022-07-10T03:08:36;94446.69;;;15.33;100.00
12793;BME280;6460;42.684;23.260;2022-07-10T03:11:04;94451.34;;;15.44;100.00
12793;BME280;6460;42.684;23.260;2022-07-10T03:13:31;94455.59;;;15.52;100.00
12793;BME280;6460;42.684;23.260;2022-07-10T03:15:58;94453.66;;;15.63;100.00
12793;BME280;6460;42.684;23.260;2022-07-10T03:18:25;94455.19;;;15.35;100.00
12793;BME280;6460;42.684;23.260;2022-07-10T03:20:52;94459.88;;;15.28;100.00
12793;BME280;6460;42.684;23.260;2022-07-10T03:23:21;94462.94;;;15.30;100.00
12793;BME280;6460;42.684;23.260;2022-07-10T03:25:48;94457.53;;;15.30;100.00
12793;BME280;6460;42.684;23.260;2022-07-10T03:28:15;94466.03;;;15.46;100.00
12793;BME280;6460;42.684;23.260;2022-07-10T03:30:42;94468.34;;;15.65;100.00
12793;BME280;6460;42.684;23.260;2022-07-10T03:33:18;94463.31;;;15.43;100.00
12793;BME280;6460;42.684;23.260;2022-07-10T03:35:45;94467.97;;;15.42;100.00
12793;BME280;6460;42.684;23.260;2022-07-10T03:38:21;94467.59;;;15.54;100.00
12793;BME280;6460;42.684;23.260;2022-07-10T03:40:48;94458.31;;;15.55;100.00
12793;BME280;6460;42.684;23.260;2022-07-10T03:43:15;94465.25;;;15.70;100.00
12793;BME280;6460;42.684;23.260;2022-07-10T03:45:42;94451.25;;;15.89;100.00
12793;BME280;6460;42.684;23.260;2022-07-10T03:48:09;94455.22;;;15.53;100.00
12793;BME280;6460;42.684;23.260;2022-07-10T03:50:36;94454.81;;;15.69;100.00
12793;BME280;6460;42.684;23.260;2022-07-10T03:53:03;94460.22;;;15.65;100.00
12793;BME280;6460;42.684;23.260;2022-07-10T03:55:32;94450.19;;;15.62;100.00
12793;BME280;6460;42.684;23.260;2022-07-10T03:57:59;94450.94;;;15.66;100.00
12793;BME280;6460;42.684;23.260;2022-07-10T04:00:29;94449.75;;;15.67;100.00
12793;BME280;6460;42.684;23.260;2022-07-10T04:02:58;94444.72;;;15.80;100.00
12793;BME280;6460;42.684;23.260;2022-07-10T04:05:26;94443.56;;;15.77;100.00
12793;BME280;6460;42.684;23.260;2022-07-10T04:07:53;94451.34;;;15.61;100.00
12793;BME280;6460;42.684;23.260;2022-07-10T04:10:22;94445.84;;;15.93;100.00
12793;BME280;6460;42.684;23.260;2022-07-10T04:12:51;94443.88;;;16.01;100.00
12793;BME280;6460;42.684;23.260;2022-07-10T04:15:20;94439.63;;;15.93;100.00
12793;BME280;6460;42.684;23.260;2022-07-10T04:17:48;94435.75;;;15.97;100.00
12793;BME280;6460;42.684;23.260;2022-07-10T04:20:16;94440.34;;;16.14;100.00
12793;BME280;6460;42.684;23.260;2022-07-10T04:22:43;94437.31;;;16.02;100.00
12793;BME280;6460;42.684;23.260;2022-07-10T04:25:11;94434.78;;;16.46;100.00
12793;BME280;6460;42.684;23.260;2022-07-10T04:27:38;94435.59;;;16.39;100.00
12793;BME280;6460;42.684;23.260;2022-07-10T04:30:08;94430.88;;;16.58;100.00
12793;BME280;6460;42.684;23.260;2022-07-10T04:32:35;94431.69;;;16.44;100.00
12793;BME280;6460;42.684;23.260;2022-07-10T04:35:03;94425.44;;;16.58;100.00
12793;BME280;6460;42.684;23.260;2022-07-10T04:37:30;94430.50;;;16.56;100.00
12793;BME280;6460;42.684;23.260;2022-07-10T04:39:57;94440.16;;;16.53;100.00
12793;BME280;6460;42.684;23.260;2022-07-10T04:42:24;94436.28;;;16.61;100.00
12793;BME280;6460;42.684;23.260;2022-07-10T04:44:51;94441.75;;;16.40;100.00
12793;BME280;6460;42.684;23.260;2022-07-10T04:47:20;94439.38;;;16.56;100.00
12793;BME280;6460;42.684;23.260;2022-07-10T04:49:47;94439.75;;;16.65;100.00
12793;BME280;6460;42.684;23.260;2022-07-10T04:52:38;94437.75;;;16.69;100.00
12793;BME280;6460;42.684;23.260;2022-07-10T04:55:06;94446.75;;;16.52;100.00
12793;BME280;6460;42.684;23.260;2022-07-10T04:57:34;94444.31;;;16.75;100.00
12793;BME280;6460;42.684;23.260;2022-07-10T05:00:01;94432.63;;;16.82;100.00
12793;BME280;6460;42.684;23.260;2022-07-10T05:02:29;94435.38;;;16.78;100.00
12793;BME280;6460;42.684;23.260;2022-07-10T05:04:57;94439.25;;;16.81;100.00
12793;BME280;6460;42.684;23.260;2022-07-10T05:07:24;94431.28;;;17.08;100.00
12793;BME280;6460;42.684;23.260;2022-07-10T05:09:51;94445.50;;;16.74;100.00
12793;BME280;6460;42.684;23.260;2022-07-10T05:12:18;94432.03;;;17.12;100.00
12793;BME280;6460;42.684;23.260;2022-07-10T05:14:45;94433.19;;;17.14;100.00
12793;BME280;6460;42.684;23.260;2022-07-10T05:17:13;94424.53;;;17.26;100.00
12793;BME280;6460;42.684;23.260;2022-07-10T05:19:41;94428.25;;;17.46;100.00
12793;BME280;6460;42.684;23.260;2022-07-10T05:22:30;94429.78;;;17.51;100.00
12793;BME280;6460;42.684;23.260;2022-07-10T05:24:57;94437.47;;;17.60;100.00
12793;BME280;6460;42.684;23.260;2022-07-10T05:27:24;94440.91;;;17.67;100.00
12793;BME280;6460;42.684;23.260;2022-07-10T05:30:23;94429.00;;;17.51;100.00
12793;BME280;6460;42.684;23.260;2022-07-10T05:32:50;94445.19;;;17.65;100.00
12793;BME280;6460;42.684;23.260;2022-07-10T05:35:19;94443.78;;;17.46;100.00
12793;BME280;6460;42.684;23.260;2022-07-10T05:40:55;94443.69;;;17.60;100.00
12793;BME280;6460;42.684;23.260;2022-07-10T05:49:54;94436.50;;;18.14;100.00
12793;BME280;6460;42.684;23.260;2022-07-10T05:52:57;94424.91;;;18.10;100.00
12793;BME280;6460;42.684;23.260;2022-07-10T05:55:24;94434.56;;;18.45;100.00
12793;BME280;6460;42.684;23.260;2022-07-10T05:57:51;94431.50;;;18.73;100.00
12793;BME280;6460;42.684;23.260;2022-07-10T06:00:20;94423.72;;;18.98;100.00
12793;BME280;6460;42.684;23.260;2022-07-10T06:02:47;94427.50;;;18.81;100.00
12793;BME280;6460;42.684;23.260;2022-07-10T06:05:14;94428.63;;;18.84;100.00
12793;BME280;6460;42.684;23.260;2022-07-10T06:07:41;94430.84;;;18.66;100.00
12793;BME280;6460;42.684;23.260;2022-07-10T06:10:10;94443.97;;;18.40;100.00
12793;BME280;6460;42.684;23.260;2022-07-10T06:12:50;94430.72;;;18.99;100.00
12793;BME280;6460;42.684;23.260;2022-07-10T06:15:17;94432.44;;;18.63;100.00
12793;BME280;6460;42.684;23.260;2022-07-10T06:17:46;94425.38;;;18.92;100.00
12793;BME280;6460;42.684;23.260;2022-07-10T06:20:13;94425.78;;;18.64;100.00
12793;BME280;6460;42.684;23.260;2022-07-10T06:22:40;94419.38;;;18.78;100.00
12793;BME280;6460;42.684;23.260;2022-07-10T06:25:09;94425.69;;;18.98;100.00
12793;BME280;6460;42.684;23.260;2022-07-10T06:27:40;94417.97;;;19.20;100.00
12793;BME280;6460;42.684;23.260;2022-07-10T06:30:07;94408.38;;;19.35;100.00
12793;BME280;6460;42.684;23.260;2022-07-10T06:32:34;94416.72;;;19.24;100.00
12793;BME280;6460;42.684;23.260;2022-07-10T06:35:02;94422.59;;;19.23;100.00
12793;BME280;6460;42.684;23.260;2022-07-10T06:37:30;94417.88;;;18.73;100.00
12793;BME280;6460;42.684;23.260;2022-07-10T06:47:28;94418.59;;;18.77;100.00
12793;BME280;6460;42.684;23.260;2022-07-10T07:14:14;94409.81;;;19.43;100.00
12793;BME280;6460;42.684;23.260;2022-07-10T07:23:59;94400.13;;;20.44;100.00
12793;BME280;6460;42.684;23.260;2022-07-10T07:30:08;94398.31;;;20.37;100.00
12793;BME280;6460;42.684;23.260;2022-07-10T07:32:36;94393.25;;;20.36;100.00
12793;BME280;6460;42.684;23.260;2022-07-10T07:35:04;94389.28;;;20.40;100.00
12793;BME280;6460;42.684;23.260;2022-07-10T08:06:40;94386.47;;;21.60;66.67
12793;BME280;6460;42.684;23.260;2022-07-10T08:15:59;94378.53;;;22.24;61.06
12793;BME280;6460;42.684;23.260;2022-07-10T08:18:26;94375.25;;;22.29;63.14
12793;BME280;6460;42.684;23.260;2022-07-10T08:20:53;94383.09;;;22.14;61.95
12793;BME280;6460;42.684;23.260;2022-07-10T08:23:31;94371.88;;;22.37;62.41
12793;BME280;6460;42.684;23.260;2022-07-10T08:25:58;94373.69;;;22.82;61.17
12793;BME280;6460;42.684;23.260;2022-07-10T08:28:46;94374.56;;;22.79;60.52
12793;BME280;6460;42.684;23.260;2022-07-10T08:31:13;94377.53;;;22.84;59.50
12793;BME280;6460;42.684;23.260;2022-07-10T08:33:48;94368.97;;;23.07;60.16
12793;BME280;6460;42.684;23.260;2022-07-10T08:36:16;94375.75;;;23.41;62.33
12793;BME280;6460;42.684;23.260;2022-07-10T08:38:45;94381.88;;;23.57;61.01
12793;BME280;6460;42.684;23.260;2022-07-10T08:41:22;94379.09;;;22.44;62.45
12793;BME280;6460;42.684;23.260;2022-07-10T08:43:51;94374.22;;;23.14;60.78
12793;BME280;6460;42.684;23.260;2022-07-10T08:46:18;94379.81;;;23.24;60.61
12793;BME280;6460;42.684;23.260;2022-07-10T08:48:47;94384.88;;;23.25;59.48
12793;BME280;6460;42.684;23.260;2022-07-10T08:51:23;94379.25;;;23.29;60.76
12793;BME280;6460;42.684;23.260;2022-07-10T08:53:54;94376.03;;;23.55;58.80
12793;BME280;6460;42.684;23.260;2022-07-10T08:56:22;94365.41;;;24.13;56.25
12793;BME280;6460;42.684;23.260;2022-07-10T08:58:50;94350.69;;;24.51;55.63
12793;BME280;6460;42.684;23.260;2022-07-10T09:01:18;94367.47;;;23.88;56.23
12793;BME280;6460;42.684;23.260;2022-07-10T09:03:48;94356.44;;;24.00;56.03
12793;BME280;6460;42.684;23.260;2022-07-10T09:06:16;94361.16;;;23.78;57.53
12793;BME280;6460;42.684;23.260;2022-07-10T09:09:01;94364.66;;;24.13;56.71
12793;BME280;6460;42.684;23.260;2022-07-10T09:11:28;94367.31;;;24.26;55.72
12793;BME280;6460;42.684;23.260;2022-07-10T09:13:57;94358.09;;;24.41;55.82
12793;BME280;6460;42.684;23.260;2022-07-10T09:16:25;94348.59;;;24.86;53.32
12793;BME280;6460;42.684;23.260;2022-07-10T09:18:53;94357.06;;;25.09;54.75
12793;BME280;6460;42.684;23.260;2022-07-10T09:21:20;94347.56;;;24.70;53.27
12793;BME280;6460;42.684;23.260;2022-07-10T09:23:47;94357.56;;;23.90;55.05
12793;BME280;6460;42.684;23.260;2022-07-10T09:26:16;94361.16;;;23.31;57.33
12793;BME280;6460;42.684;23.260;2022-07-10T09:28:43;94347.59;;;24.40;54.54
12793;BME280;6460;42.684;23.260;2022-07-10T09:31:10;94351.53;;;23.95;55.33
12793;BME280;6460;42.684;23.260;2022-07-10T09:33:39;94341.72;;;24.59;53.69
12793;BME280;6460;42.684;23.260;2022-07-10T09:36:07;94343.25;;;24.30;54.47
12793;BME280;6460;42.684;23.260;2022-07-10T09:38:52;94344.25;;;24.45;55.72
12793;BME280;6460;42.684;23.260;2022-07-10T09:41:24;94335.59;;;24.55;54.86
12793;BME280;6460;42.684;23.260;2022-07-10T09:43:53;94350.59;;;24.33;56.78
12793;BME280;6460;42.684;23.260;2022-07-10T09:46:22;94344.91;;;24.05;54.05
12793;BME280;6460;42.684;23.260;2022-07-10T09:49:00;94339.69;;;23.64;55.67
12793;BME280;6460;42.684;23.260;2022-07-10T09:51:30;94332.56;;;24.10;55.13
12793;BME280;6460;42.684;23.260;2022-07-10T09:54:00;94331.53;;;24.38;54.08
12793;BME280;6460;42.684;23.260;2022-07-10T09:56:32;94335.31;;;24.32;55.25
12793;BME280;6460;42.684;23.260;2022-07-10T09:59:00;94331.31;;;24.54;52.83
12793;BME280;6460;42.684;23.260;2022-07-10T10:01:33;94335.81;;;24.39;54.59
12793;BME280;6460;42.684;23.260;2022-07-10T10:04:03;94333.53;;;23.94;54.03
12793;BME280;6460;42.684;23.260;2022-07-10T10:06:31;94337.84;;;24.48;52.86
12793;BME280;6460;42.684;23.260;2022-07-10T10:09:04;94332.53;;;24.84;51.82
12793;BME280;6460;42.684;23.260;2022-07-10T10:11:35;94335.81;;;24.70;53.36
12793;BME280;6460;42.684;23.260;2022-07-10T10:14:03;94341.50;;;24.01;54.33
12793;BME280;6460;42.684;23.260;2022-07-10T10:16:33;94340.88;;;24.19;53.14
12793;BME280;6460;42.684;23.260;2022-07-10T10:19:01;94343.88;;;23.56;55.47
12793;BME280;6460;42.684;23.260;2022-07-10T10:21:46;94335.94;;;23.24;59.19
12793;BME280;6460;42.684;23.260;2022-07-10T10:24:14;94339.75;;;23.39;56.56
12793;BME280;6460;42.684;23.260;2022-07-10T10:26:43;94342.19;;;23.24;55.91
12793;BME280;6460;42.684;23.260;2022-07-10T10:29:11;94333.28;;;23.33;56.15
12793;BME280;6460;42.684;23.260;2022-07-10T10:31:39;94327.28;;;23.25;57.86
12793;BME280;6460;42.684;23.260;2022-07-10T10:34:06;94321.16;;;23.55;57.67
12793;BME280;6460;42.684;23.260;2022-07-10T10:36:44;94324.75;;;23.65;54.86
12793;BME280;6460;42.684;23.260;2022-07-10T10:39:12;94324.84;;;23.40;56.41
12793;BME280;6460;42.684;23.260;2022-07-10T10:41:46;94319.91;;;23.69;54.41
12793;BME280;6460;42.684;23.260;2022-07-10T10:44:34;94321.94;;;23.56;54.75
12793;BME280;6460;42.684;23.260;2022-07-10T10:47:03;94320.56;;;23.73;55.17
12793;BME280;6460;42.684;23.260;2022-07-10T10:49:54;94325.66;;;23.84;54.98
12793;BME280;6460;42.684;23.260;2022-07-10T10:52:24;94320.16;;;23.84;53.81
12793;BME280;6460;42.684;23.260;2022-07-10T10:55:05;94320.91;;;23.41;54.92
12793;BME280;6460;42.684;23.260;2022-07-10T10:57:41;94312.75;;;23.50;55.21
12793;BME280;6460;42.684;23.260;2022-07-10T11:00:33;94310.91;;;23.90;55.34
12793;BME280;6460;42.684;23.260;2022-07-10T11:03:21;94310.91;;;23.90;53.79
12793;BME280;6460;42.684;23.260;2022-07-10T11:05:49;94308.19;;;24.34;51.38
12793;BME280;6460;42.684;23.260;2022-07-10T11:08:36;94305.56;;;25.01;51.62
12793;BME280;6460;42.684;23.260;2022-07-10T11:11:37;94300.78;;;25.77;49.97
12793;BME280;6460;42.684;23.260;2022-07-10T11:14:06;94295.72;;;26.03;49.98
12793;BME280;6460;42.684;23.260;2022-07-10T11:16:34;94296.97;;;25.84;47.07
12793;BME280;6460;42.684;23.260;2022-07-10T11:19:01;94301.69;;;25.56;51.06
12793;BME280;6460;42.684;23.260;2022-07-10T11:21:43;94302.78;;;25.59;50.07
12793;BME280;6460;42.684;23.260;2022-07-10T11:24:23;94311.41;;;24.72;51.42
12793;BME280;6460;42.684;23.260;2022-07-10T11:27:06;94296.63;;;25.46;50.39
12793;BME280;6460;42.684;23.260;2022-07-10T11:29:37;94296.25;;;24.98;50.73
12793;BME280;6460;42.684;23.260;2022-07-10T11:32:05;94306.47;;;24.67;51.97
12793;BME280;6460;42.684;23.260;2022-07-10T11:34:36;94295.03;;;24.59;51.54
12793;BME280;6460;42.684;23.260;2022-07-10T11:37:03;94297.31;;;24.30;51.25
12793;BME280;6460;42.684;23.260;2022-07-10T11:39:39;94297.06;;;24.37;50.78
12793;BME280;6460;42.684;23.260;2022-07-10T11:42:06;94295.72;;;24.20;53.01
12793;BME280;6460;42.684;23.260;2022-07-10T11:44:33;94304.19;;;24.35;52.42
12793;BME280;6460;42.684;23.260;2022-07-10T11:47:02;94300.81;;;24.61;51.44
12793;BME280;6460;42.684;23.260;2022-07-10T11:49:30;94296.72;;;25.06;50.17
12793;BME280;6460;42.684;23.260;2022-07-10T11:52:01;94298.34;;;25.61;49.19
12793;BME280;6460;42.684;23.260;2022-07-10T11:54:29;94292.63;;;25.47;45.56
12793;BME280;6460;42.684;23.260;2022-07-10T11:56:56;94302.56;;;24.77;48.78
12793;BME280;6460;42.684;23.260;2022-07-10T11:59:24;94306.28;;;24.92;47.26
12793;BME280;6460;42.684;23.260;2022-07-10T12:01:53;94299.50;;;24.75;49.23
12793;BME280;6460;42.684;23.260;2022-07-10T12:04:23;94291.69;;;25.04;49.46
12793;BME280;6460;42.684;23.260;2022-07-10T12:06:52;94296.78;;;25.42;49.06
12793;BME280;6460;42.684;23.260;2022-07-10T12:09:20;94303.91;;;25.12;49.81
12793;BME280;6460;42.684;23.260;2022-07-10T12:11:58;94300.59;;;25.26;48.25
12793;BME280;6460;42.684;23.260;2022-07-10T12:14:26;94301.44;;;25.05;47.47
12793;BME280;6460;42.684;23.260;2022-07-10T12:16:54;94305.41;;;24.64;47.91
12793;BME280;6460;42.684;23.260;2022-07-10T12:19:24;94303.53;;;24.52;48.98
12793;BME280;6460;42.684;23.260;2022-07-10T12:21:54;94305.81;;;24.54;48.83
12793;BME280;6460;42.684;23.260;2022-07-10T12:24:21;94303.72;;;24.67;47.34
12793;BME280;6460;42.684;23.260;2022-07-10T12:26:49;94301.63;;;24.71;46.19
12793;BME280;6460;42.684;23.260;2022-07-10T12:29:21;94308.13;;;24.55;47.76
12793;BME280;6460;42.684;23.260;2022-07-10T12:31:51;94298.56;;;24.38;49.15
12793;BME280;6460;42.684;23.260;2022-07-10T12:34:20;94296.50;;;24.20;50.21
12793;BME280;6460;42.684;23.260;2022-07-10T12:37:06;94310.97;;;24.12;48.75
12793;BME280;6460;42.684;23.260;2022-07-10T12:39:36;94310.31;;;24.39;48.54
12793;BME280;6460;42.684;23.260;2022-07-10T12:42:07;94301.09;;;24.85;47.50
12793;BME280;6460;42.684;23.260;2022-07-10T12:44:36;94310.91;;;24.34;45.68
12793;BME280;6460;42.684;23.260;2022-07-10T12:47:07;94310.75;;;24.28;42.51
12793;BME280;6460;42.684;23.260;2022-07-10T12:49:48;94306.47;;;24.27;41.89
12793;BME280;6460;42.684;23.260;2022-07-10T12:52:24;94309.22;;;24.05;39.56
12793;BME280;6460;42.684;23.260;2022-07-10T12:55:08;94300.06;;;24.08;41.36
12793;BME280;6460;42.684;23.260;2022-07-10T12:57:50;94300.78;;;24.21;41.61
12793;BME280;6460;42.684;23.260;2022-07-10T13:00:19;94299.88;;;24.03;40.54
12793;BME280;6460;42.684;23.260;2022-07-10T13:02:47;94305.16;;;23.97;39.76
12793;BME280;6460;42.684;23.260;2022-07-10T13:05:26;94318.06;;;24.09;38.36
12793;BME280;6460;42.684;23.260;2022-07-10T13:08:08;94299.00;;;24.28;40.93
12793;BME280;6460;42.684;23.260;2022-07-10T13:10:38;94300.50;;;24.90;40.14
12793;BME280;6460;42.684;23.260;2022-07-10T13:13:05;94298.28;;;25.34;38.64
12793;BME280;6460;42.684;23.260;2022-07-10T13:15:33;94299.38;;;25.46;38.28
12793;BME280;6460;42.684;23.260;2022-07-10T13:18:05;94291.41;;;25.39;36.98
12793;BME280;6460;42.684;23.260;2022-07-10T13:20:32;94290.16;;;25.12;36.55
12793;BME280;6460;42.684;23.260;2022-07-10T13:22:59;94301.19;;;25.31;38.25
12793;BME280;6460;42.684;23.260;2022-07-10T13:25:28;94292.00;;;25.34;39.59
12793;BME280;6460;42.684;23.260;2022-07-10T13:27:54;94301.44;;;25.05;37.19
12793;BME280;6460;42.684;23.260;2022-07-10T13:30:21;94301.31;;;24.69;37.26
12793;BME280;6460;42.684;23.260;2022-07-10T13:32:48;94300.63;;;24.47;38.76
12793;BME280;6460;42.684;23.260;2022-07-10T13:35:15;94306.38;;;24.40;39.34
12793;BME280;6460;42.684;23.260;2022-07-10T13:37:42;94300.75;;;24.00;40.60
12793;BME280;6460;42.684;23.260;2022-07-10T13:40:10;94306.47;;;24.05;41.83
12793;BME280;6460;42.684;23.260;2022-07-10T13:42:38;94295.56;;;24.14;42.41
12793;BME280;6460;42.684;23.260;2022-07-10T13:45:07;94292.41;;;24.03;43.36
12793;BME280;6460;42.684;23.260;2022-07-10T13:47:34;94298.47;;;23.98;43.19
12793;BME280;6460;42.684;23.260;2022-07-10T13:50:01;94294.78;;;23.92;43.28
12793;BME280;6460;42.684;23.260;2022-07-10T13:52:28;94302.69;;;23.90;44.04
12793;BME280;6460;42.684;23.260;2022-07-10T13:54:55;94294.66;;;23.96;44.13
12793;BME280;6460;42.684;23.260;2022-07-10T13:57:23;94310.34;;;23.95;44.16
12793;BME280;6460;42.684;23.260;2022-07-10T13:59:52;94300.28;;;23.70;43.28
12793;BME280;6460;42.684;23.260;2022-07-10T14:02:19;94302.69;;;23.68;43.76
12793;BME280;6460;42.684;23.260;2022-07-10T14:04:46;94305.00;;;23.92;42.20
12793;BME280;6460;42.684;23.260;2022-07-10T14:07:13;94318.97;;;23.85;42.19
12793;BME280;6460;42.684;23.260;2022-07-10T14:09:40;94326.53;;;23.81;42.51
12793;BME280;6460;42.684;23.260;2022-07-10T14:12:07;94309.91;;;23.75;42.80
12793;BME280;6460;42.684;23.260;2022-07-10T14:14:34;94315.44;;;23.84;41.35
12793;BME280;6460;42.684;23.260;2022-07-10T14:17:03;94302.97;;;23.83;42.14
12793;BME280;6460;42.684;23.260;2022-07-10T14:19:30;94319.25;;;23.43;43.01
12793;BME280;6460;42.684;23.260;2022-07-10T14:21:57;94319.06;;;23.59;43.37
12793;BME280;6460;42.684;23.260;2022-07-10T14:24:24;94310.84;;;23.59;43.47
12793;BME280;6460;42.684;23.260;2022-07-10T14:26:52;94306.72;;;23.77;43.27
12793;BME280;6460;42.684;23.260;2022-07-10T14:29:19;94306.78;;;23.86;43.42
12793;BME280;6460;42.684;23.260;2022-07-10T14:31:46;94307.69;;;23.83;42.96
12793;BME280;6460;42.684;23.260;2022-07-10T14:34:16;94313.66;;;23.90;43.27
12793;BME280;6460;42.684;23.260;2022-07-10T14:36:43;94307.56;;;23.86;43.06